sensor_id;sensor_type;location;lat;lon;timestamp;pressure;altitude;pressure_sealevel;temperature;humidity
63970;BME280;50156;37.772;-122.432;2022-09-17T00:01:35;100933.67;;;19.42;100.00
63970;BME280;50156;37.772;-122.432;2022-09-17T00:04:04;100932.20;;;19.34;100.00
63970;BME280;50156;37.772;-122.432;2022-09-17T00:06:35;100923.76;;;19.41;100.00
63970;BME280;50156;37.772;-122.432;2022-09-17T00:09:05;100916.44;;;19.24;100.00
63970;BME280;50156;37.772;-122.432;2022-09-17T00:11:37;100916.30;;;19.46;100.00
63970;BME280;50156;37.772;-122.432;2022-09-17T00:14:07;100911.34;;;19.62;100.00
63970;BME280;50156;37.772;-122.432;2022-09-17T00:16:38;100911.52;;;19.45;100.00
63970;BME280;50156;37.772;-122.432;2022-09-17T00:19:11;100902.87;;;19.39;100.00
63970;BME280;50156;37.772;-122.432;2022-09-17T00:21:40;100902.35;;;19.19;100.00
63970;BME280;50156;37.772;-122.432;2022-09-17T00:24:12;100897.39;;;19.09;100.00
63970;BME280;50156;37.772;-122.432;2022-09-17T00:26:41;100896.54;;;19.20;100.00
63970;BME280;50156;37.772;-122.432;2022-09-17T00:29:10;100897.45;;;19.34;100.00
63970;BME280;50156;37.772;-122.432;2022-09-17T00:31:39;100898.37;;;19.15;100.00
63970;BME280;50156;37.772;-122.432;2022-09-17T00:34:08;100900.16;;;18.87;100.00
63970;BME280;50156;37.772;-122.432;2022-09-17T00:36:37;100889.93;;;18.70;100.00
63970;BME280;50156;37.772;-122.432;2022-09-17T00:39:09;100885.63;;;18.76;100.00
63970;BME280;50156;37.772;-122.432;2022-09-17T00:41:38;100884.52;;;18.76;100.00
63970;BME280;50156;37.772;-122.432;2022-09-17T00:44:49;100883.22;;;18.52;100.00
63970;BME280;50156;37.772;-122.432;2022-09-17T00:47:24;100889.59;;;18.66;100.00
63970;BME280;50156;37.772;-122.432;2022-09-17T00:49:56;100887.96;;;18.47;100.00
63970;BME280;50156;37.772;-122.432;2022-09-17T00:52:34;100890.08;;;18.39;100.00
63970;BME280;50156;37.772;-122.432;2022-09-17T00:55:11;100882.16;;;18.37;100.00
63970;BME280;50156;37.772;-122.432;2022-09-17T00:57:42;100889.76;;;18.35;100.00
63970;BME280;50156;37.772;-122.432;2022-09-17T01:00:12;100889.90;;;18.16;100.00
63970;BME280;50156;37.772;-122.432;2022-09-17T01:02:42;100884.52;;;18.13;100.00
63970;BME280;50156;37.772;-122.432;2022-09-17T01:05:12;100875.54;;;18.06;100.00
63970;BME280;50156;37.772;-122.432;2022-09-17T01:07:56;100880.05;;;18.21;100.00
63970;BME280;50156;37.772;-122.432;2022-09-17T01:10:49;100883.83;;;17.88;100.00
63970;BME280;50156;37.772;-122.432;2022-09-17T01:13:28;100878.86;;;18.06;100.00
63970;BME280;50156;37.772;-122.432;2022-09-17T01:16:05;100879.40;;;17.79;100.00
63970;BME280;50156;37.772;-122.432;2022-09-17T01:18:46;100881.91;;;17.75;100.00
63970;BME280;50156;37.772;-122.432;2022-09-17T01:21:50;100880.88;;;17.55;100.00
63970;BME280;50156;37.772;-122.432;2022-09-17T01:25:00;100882.88;;;17.45;100.00
63970;BME280;50156;37.772;-122.432;2022-09-17T01:28:21;100878.58;;;17.44;100.00
63970;BME280;50156;37.772;-122.432;2022-09-17T01:32:04;100885.57;;;17.34;100.00
63970;BME280;50156;37.772;-122.432;2022-09-17T01:34:44;100879.23;;;17.14;100.00
63970;BME280;50156;37.772;-122.432;2022-09-17T01:37:19;100880.02;;;17.01;100.00
63970;BME280;50156;37.772;-122.432;2022-09-17T01:39:58;100879.71;;;16.82;100.00
63970;BME280;50156;37.772;-122.432;2022-09-17T01:42:35;100877.58;;;16.76;100.00
63970;BME280;50156;37.772;-122.432;2022-09-17T01:45:11;100882.48;;;16.62;100.00
63970;BME280;50156;37.772;-122.432;2022-09-17T01:47:46;100881.10;;;16.52;100.00
63970;BME280;50156;37.772;-122.432;2022-09-17T01:50:21;100877.89;;;16.50;100.00
63970;BME280;50156;37.772;-122.432;2022-09-17T01:52:54;100883.52;;;16.35;100.00
63970;BME280;50156;37.772;-122.432;2022-09-17T01:55:28;100877.69;;;16.31;100.00
63970;BME280;50156;37.772;-122.432;2022-09-17T01:58:01;100888.37;;;16.18;100.00
63970;BME280;50156;37.772;-122.432;2022-09-17T02:00:33;100887.43;;;16.08;100.00
63970;BME280;50156;37.772;-122.432;2022-09-17T02:03:08;100886.59;;;15.87;100.00
63970;BME280;50156;37.772;-122.432;2022-09-17T02:05:41;100885.80;;;15.70;100.00
63970;BME280;50156;37.772;-122.432;2022-09-17T02:08:15;100883.67;;;15.70;100.00
63970;BME280;50156;37.772;-122.432;2022-09-17T02:10:49;100877.00;;;15.58;100.00
63970;BME280;50156;37.772;-122.432;2022-09-17T02:13:23;100880.43;;;15.52;100.00
63970;BME280;50156;37.772;-122.432;2022-09-17T02:15:58;100872.71;;;15.47;100.00
63970;BME280;50156;37.772;-122.432;2022-09-17T02:18:33;100873.56;;;15.40;100.00
63970;BME280;50156;37.772;-122.432;2022-09-17T02:21:10;100872.80;;;15.36;100.00
63970;BME280;50156;37.772;-122.432;2022-09-17T02:23:46;100878.92;;;15.34;100.00
63970;BME280;50156;37.772;-122.432;2022-09-17T02:26:18;100879.87;;;15.33;100.00
63970;BME280;50156;37.772;-122.432;2022-09-17T02:28:50;100880.11;;;15.18;100.00
63970;BME280;50156;37.772;-122.432;2022-09-17T02:31:21;100889.34;;;15.13;100.00
63970;BME280;50156;37.772;-122.432;2022-09-17T02:33:52;100890.68;;;15.17;100.00
63970;BME280;50156;37.772;-122.432;2022-09-17T02:36:23;100896.54;;;15.12;100.00
63970;BME280;50156;37.772;-122.432;2022-09-17T02:38:59;100894.73;;;15.11;100.00
63970;BME280;50156;37.772;-122.432;2022-09-17T02:41:39;100890.16;;;15.07;100.00
63970;BME280;50156;37.772;-122.432;2022-09-17T02:44:21;100892.73;;;14.99;100.00
63970;BME280;50156;37.772;-122.432;2022-09-17T02:47:14;100891.03;;;14.97;100.00
63970;BME280;50156;37.772;-122.432;2022-09-17T02:50:01;100889.05;;;14.97;100.00
63970;BME280;50156;37.772;-122.432;2022-09-17T02:52:49;100892.28;;;14.91;100.00
63970;BME280;50156;37.772;-122.432;2022-09-17T02:55:27;100896.90;;;14.88;100.00
63970;BME280;50156;37.772;-122.432;2022-09-17T02:58:03;100900.81;;;14.88;100.00
63970;BME280;50156;37.772;-122.432;2022-09-17T03:00:34;100895.55;;;14.85;100.00
63970;BME280;50156;37.772;-122.432;2022-09-17T03:03:07;100900.30;;;14.89;100.00
63970;BME280;50156;37.772;-122.432;2022-09-17T03:05:39;100901.03;;;14.85;100.00
63970;BME280;50156;37.772;-122.432;2022-09-17T03:08:11;100906.39;;;14.83;100.00
63970;BME280;50156;37.772;-122.432;2022-09-17T03:10:40;100903.92;;;14.75;100.00
63970;BME280;50156;37.772;-122.432;2022-09-17T03:13:09;100908.11;;;14.77;100.00
63970;BME280;50156;37.772;-122.432;2022-09-17T03:15:38;100906.50;;;14.68;100.00
63970;BME280;50156;37.772;-122.432;2022-09-17T03:18:06;100909.03;;;14.70;100.00
63970;BME280;50156;37.772;-122.432;2022-09-17T03:20:35;100905.85;;;14.70;100.00
63970;BME280;50156;37.772;-122.432;2022-09-17T03:23:03;100910.56;;;14.64;100.00
63970;BME280;50156;37.772;-122.432;2022-09-17T03:25:33;100908.22;;;14.65;100.00
63970;BME280;50156;37.772;-122.432;2022-09-17T03:28:02;100909.52;;;14.64;100.00
63970;BME280;50156;37.772;-122.432;2022-09-17T03:30:30;100905.95;;;14.58;100.00
63970;BME280;50156;37.772;-122.432;2022-09-17T03:32:59;100915.06;;;14.60;100.00
63970;BME280;50156;37.772;-122.432;2022-09-17T03:35:28;100912.52;;;14.58;100.00
63970;BME280;50156;37.772;-122.432;2022-09-17T03:37:57;100902.60;;;14.54;100.00
63970;BME280;50156;37.772;-122.432;2022-09-17T03:40:25;100905.92;;;14.54;100.00
63970;BME280;50156;37.772;-122.432;2022-09-17T03:42:55;100897.77;;;14.54;100.00
63970;BME280;50156;37.772;-122.432;2022-09-17T03:45:23;100895.43;;;14.57;100.00
63970;BME280;50156;37.772;-122.432;2022-09-17T03:47:51;100891.73;;;14.55;100.00
63970;BME280;50156;37.772;-122.432;2022-09-17T03:50:20;100884.31;;;14.52;100.00
63970;BME280;50156;37.772;-122.432;2022-09-17T03:52:49;100886.45;;;14.53;100.00
63970;BME280;50156;37.772;-122.432;2022-09-17T03:55:17;100889.53;;;14.54;100.00
63970;BME280;50156;37.772;-122.432;2022-09-17T03:57:46;100885.32;;;14.52;100.00
63970;BME280;50156;37.772;-122.432;2022-09-17T04:00:14;100883.40;;;14.52;100.00
63970;BME280;50156;37.772;-122.432;2022-09-17T04:02:43;100881.33;;;14.52;100.00
63970;BME280;50156;37.772;-122.432;2022-09-17T04:05:12;100878.30;;;14.54;100.00
63970;BME280;50156;37.772;-122.432;2022-09-17T04:07:40;100879.46;;;14.54;100.00
63970;BME280;50156;37.772;-122.432;2022-09-17T04:10:09;100882.49;;;14.52;100.00
63970;BME280;50156;37.772;-122.432;2022-09-17T04:12:38;100879.28;;;14.51;100.00
63970;BME280;50156;37.772;-122.432;2022-09-17T04:15:07;100878.97;;;14.53;100.00
63970;BME280;50156;37.772;-122.432;2022-09-17T04:17:36;100880.21;;;14.51;100.00
63970;BME280;50156;37.772;-122.432;2022-09-17T04:20:05;100879.67;;;14.48;100.00
63970;BME280;50156;37.772;-122.432;2022-09-17T04:22:34;100867.13;;;14.45;100.00
63970;BME280;50156;37.772;-122.432;2022-09-17T04:25:03;100868.48;;;14.43;100.00
63970;BME280;50156;37.772;-122.432;2022-09-17T04:27:32;100875.03;;;14.43;100.00
63970;BME280;50156;37.772;-122.432;2022-09-17T04:30:00;100876.67;;;14.49;100.00
63970;BME280;50156;37.772;-122.432;2022-09-17T04:32:30;100880.53;;;14.45;100.00
63970;BME280;50156;37.772;-122.432;2022-09-17T04:34:58;100877.21;;;14.46;100.00
63970;BME280;50156;37.772;-122.432;2022-09-17T04:37:26;100876.62;;;14.45;100.00
63970;BME280;50156;37.772;-122.432;2022-09-17T04:39:55;100873.06;;;14.44;100.00
63970;BME280;50156;37.772;-122.432;2022-09-17T04:42:23;100870.24;;;14.44;100.00
63970;BME280;50156;37.772;-122.432;2022-09-17T04:44:51;100864.42;;;14.44;100.00
63970;BME280;50156;37.772;-122.432;2022-09-17T04:47:20;100861.20;;;14.44;100.00
63970;BME280;50156;37.772;-122.432;2022-09-17T04:49:48;100861.93;;;14.42;100.00
63970;BME280;50156;37.772;-122.432;2022-09-17T04:52:17;100858.74;;;14.43;100.00
63970;BME280;50156;37.772;-122.432;2022-09-17T04:54:45;100858.23;;;14.41;100.00
63970;BME280;50156;37.772;-122.432;2022-09-17T04:57:14;100855.43;;;14.40;100.00
63970;BME280;50156;37.772;-122.432;2022-09-17T04:59:42;100852.06;;;14.39;100.00
63970;BME280;50156;37.772;-122.432;2022-09-17T05:02:10;100850.12;;;14.42;100.00
63970;BME280;50156;37.772;-122.432;2022-09-17T05:04:39;100849.12;;;14.41;100.00
63970;BME280;50156;37.772;-122.432;2022-09-17T05:07:07;100854.71;;;14.41;100.00
63970;BME280;50156;37.772;-122.432;2022-09-17T05:09:36;100848.44;;;14.37;100.00
63970;BME280;50156;37.772;-122.432;2022-09-17T05:12:05;100850.69;;;14.35;100.00
63970;BME280;50156;37.772;-122.432;2022-09-17T05:14:34;100854.74;;;14.41;100.00
63970;BME280;50156;37.772;-122.432;2022-09-17T05:17:03;100857.07;;;14.40;100.00
63970;BME280;50156;37.772;-122.432;2022-09-17T05:19:31;100853.67;;;14.37;100.00
63970;BME280;50156;37.772;-122.432;2022-09-17T05:21:59;100848.10;;;14.36;100.00
63970;BME280;50156;37.772;-122.432;2022-09-17T05:24:28;100852.56;;;14.36;100.00
63970;BME280;50156;37.772;-122.432;2022-09-17T05:26:57;100846.21;;;14.41;100.00
63970;BME280;50156;37.772;-122.432;2022-09-17T05:29:25;100847.35;;;14.41;100.00
63970;BME280;50156;37.772;-122.432;2022-09-17T05:31:54;100847.66;;;14.35;100.00
63970;BME280;50156;37.772;-122.432;2022-09-17T05:34:23;100842.77;;;14.35;100.00
63970;BME280;50156;37.772;-122.432;2022-09-17T05:36:51;100846.18;;;14.38;100.00
63970;BME280;50156;37.772;-122.432;2022-09-17T05:39:20;100840.65;;;14.36;100.00
63970;BME280;50156;37.772;-122.432;2022-09-17T05:41:48;100840.15;;;14.36;100.00
63970;BME280;50156;37.772;-122.432;2022-09-17T05:44:17;100834.37;;;14.35;100.00
63970;BME280;50156;37.772;-122.432;2022-09-17T05:46:47;100831.04;;;14.39;100.00
63970;BME280;50156;37.772;-122.432;2022-09-17T05:49:15;100830.50;;;14.40;100.00
63970;BME280;50156;37.772;-122.432;2022-09-17T05:51:44;100826.60;;;14.37;100.00
63970;BME280;50156;37.772;-122.432;2022-09-17T05:54:12;100832.35;;;14.38;100.00
63970;BME280;50156;37.772;-122.432;2022-09-17T05:56:40;100835.70;;;14.43;100.00
63970;BME280;50156;37.772;-122.432;2022-09-17T05:59:09;100836.04;;;14.36;100.00
63970;BME280;50156;37.772;-122.432;2022-09-17T06:01:38;100838.96;;;14.36;100.00
63970;BME280;50156;37.772;-122.432;2022-09-17T06:04:06;100834.58;;;14.37;100.00
63970;BME280;50156;37.772;-122.432;2022-09-17T06:06:35;100832.49;;;14.43;100.00
63970;BME280;50156;37.772;-122.432;2022-09-17T06:09:03;100830.68;;;14.41;100.00
63970;BME280;50156;37.772;-122.432;2022-09-17T06:11:32;100831.25;;;14.38;100.00
63970;BME280;50156;37.772;-122.432;2022-09-17T06:14:01;100827.59;;;14.40;100.00
63970;BME280;50156;37.772;-122.432;2022-09-17T06:16:30;100825.55;;;14.36;100.00
63970;BME280;50156;37.772;-122.432;2022-09-17T06:18:59;100829.49;;;14.39;100.00
63970;BME280;50156;37.772;-122.432;2022-09-17T06:21:28;100829.14;;;14.34;100.00
63970;BME280;50156;37.772;-122.432;2022-09-17T06:23:56;100831.72;;;14.41;100.00
63970;BME280;50156;37.772;-122.432;2022-09-17T06:26:25;100829.67;;;14.44;100.00
63970;BME280;50156;37.772;-122.432;2022-09-17T06:28:53;100820.60;;;14.37;100.00
63970;BME280;50156;37.772;-122.432;2022-09-17T06:31:22;100818.33;;;14.39;100.00
63970;BME280;50156;37.772;-122.432;2022-09-17T06:33:50;100815.73;;;14.34;100.00
63970;BME280;50156;37.772;-122.432;2022-09-17T06:36:19;100816.09;;;14.35;100.00
63970;BME280;50156;37.772;-122.432;2022-09-17T06:38:48;100817.79;;;14.28;100.00
63970;BME280;50156;37.772;-122.432;2022-09-17T06:41:16;100817.22;;;14.24;100.00
63970;BME280;50156;37.772;-122.432;2022-09-17T06:43:45;100814.68;;;14.25;100.00
63970;BME280;50156;37.772;-122.432;2022-09-17T06:46:13;100812.95;;;14.26;100.00
63970;BME280;50156;37.772;-122.432;2022-09-17T06:48:42;100809.11;;;14.21;100.00
63970;BME280;50156;37.772;-122.432;2022-09-17T06:51:11;100811.75;;;14.21;100.00
63970;BME280;50156;37.772;-122.432;2022-09-17T06:53:39;100809.32;;;14.19;100.00
63970;BME280;50156;37.772;-122.432;2022-09-17T06:56:08;100805.75;;;14.17;100.00
63970;BME280;50156;37.772;-122.432;2022-09-17T06:58:38;100807.24;;;14.18;100.00
63970;BME280;50156;37.772;-122.432;2022-09-17T07:01:06;100804.01;;;14.18;100.00
63970;BME280;50156;37.772;-122.432;2022-09-17T07:03:35;100801.31;;;14.23;100.00
63970;BME280;50156;37.772;-122.432;2022-09-17T07:06:06;100795.56;;;14.15;100.00
63970;BME280;50156;37.772;-122.432;2022-09-17T07:08:36;100795.35;;;14.17;100.00
63970;BME280;50156;37.772;-122.432;2022-09-17T07:11:05;100792.16;;;14.16;100.00
63970;BME280;50156;37.772;-122.432;2022-09-17T07:13:34;100788.16;;;14.20;100.00
63970;BME280;50156;37.772;-122.432;2022-09-17T07:16:03;100787.14;;;14.18;100.00
63970;BME280;50156;37.772;-122.432;2022-09-17T07:18:33;100787.96;;;14.15;100.00
63970;BME280;50156;37.772;-122.432;2022-09-17T07:21:02;100784.70;;;14.12;100.00
63970;BME280;50156;37.772;-122.432;2022-09-17T07:23:34;100784.81;;;14.12;100.00
63970;BME280;50156;37.772;-122.432;2022-09-17T07:26:06;100786.07;;;14.14;100.00
63970;BME280;50156;37.772;-122.432;2022-09-17T07:28:36;100783.61;;;14.12;100.00
63970;BME280;50156;37.772;-122.432;2022-09-17T07:31:06;100776.43;;;14.08;100.00
63970;BME280;50156;37.772;-122.432;2022-09-17T07:33:36;100775.78;;;14.05;100.00
63970;BME280;50156;37.772;-122.432;2022-09-17T07:36:06;100773.92;;;14.03;100.00
63970;BME280;50156;37.772;-122.432;2022-09-17T07:38:35;100770.58;;;14.07;100.00
63970;BME280;50156;37.772;-122.432;2022-09-17T07:41:05;100768.35;;;14.03;100.00
63970;BME280;50156;37.772;-122.432;2022-09-17T07:43:35;100766.51;;;13.95;100.00
63970;BME280;50156;37.772;-122.432;2022-09-17T07:46:05;100765.21;;;13.94;100.00
63970;BME280;50156;37.772;-122.432;2022-09-17T07:48:34;100764.62;;;13.90;100.00
63970;BME280;50156;37.772;-122.432;2022-09-17T07:51:03;100765.50;;;13.85;100.00
63970;BME280;50156;37.772;-122.432;2022-09-17T07:53:32;100765.82;;;13.81;100.00
63970;BME280;50156;37.772;-122.432;2022-09-17T07:56:01;100767.04;;;13.81;100.00
63970;BME280;50156;37.772;-122.432;2022-09-17T07:58:32;100766.12;;;13.81;100.00
63970;BME280;50156;37.772;-122.432;2022-09-17T08:01:01;100762.57;;;13.78;100.00
63970;BME280;50156;37.772;-122.432;2022-09-17T08:03:31;100764.44;;;13.80;100.00
63970;BME280;50156;37.772;-122.432;2022-09-17T08:06:02;100760.01;;;13.73;100.00
63970;BME280;50156;37.772;-122.432;2022-09-17T08:08:32;100758.14;;;13.75;100.00
63970;BME280;50156;37.772;-122.432;2022-09-17T08:11:02;100759.41;;;13.74;100.00
63970;BME280;50156;37.772;-122.432;2022-09-17T08:13:32;100760.88;;;13.69;100.00
63970;BME280;50156;37.772;-122.432;2022-09-17T08:16:01;100762.42;;;13.73;100.00
63970;BME280;50156;37.772;-122.432;2022-09-17T08:18:30;100763.91;;;13.71;100.00
63970;BME280;50156;37.772;-122.432;2022-09-17T08:21:01;100765.21;;;13.66;100.00
63970;BME280;50156;37.772;-122.432;2022-09-17T08:23:32;100765.84;;;13.66;100.00
63970;BME280;50156;37.772;-122.432;2022-09-17T08:26:01;100766.81;;;13.61;100.00
63970;BME280;50156;37.772;-122.432;2022-09-17T08:28:32;100764.56;;;13.57;100.00
63970;BME280;50156;37.772;-122.432;2022-09-17T08:31:02;100764.13;;;13.61;100.00
63970;BME280;50156;37.772;-122.432;2022-09-17T08:33:32;100764.19;;;13.61;100.00
63970;BME280;50156;37.772;-122.432;2022-09-17T08:36:01;100766.95;;;13.65;100.00
63970;BME280;50156;37.772;-122.432;2022-09-17T08:38:31;100765.78;;;13.67;100.00
63970;BME280;50156;37.772;-122.432;2022-09-17T08:41:11;100765.41;;;13.70;100.00
63970;BME280;50156;37.772;-122.432;2022-09-17T08:43:48;100760.84;;;13.64;100.00
63970;BME280;50156;37.772;-122.432;2022-09-17T08:46:18;100759.59;;;13.63;100.00
63970;BME280;50156;37.772;-122.432;2022-09-17T08:48:50;100761.31;;;13.64;100.00
63970;BME280;50156;37.772;-122.432;2022-09-17T08:51:28;100759.42;;;13.57;100.00
63970;BME280;50156;37.772;-122.432;2022-09-17T08:54:06;100758.85;;;13.59;100.00
63970;BME280;50156;37.772;-122.432;2022-09-17T08:56:39;100758.99;;;13.54;100.00
63970;BME280;50156;37.772;-122.432;2022-09-17T08:59:17;100759.73;;;13.52;100.00
63970;BME280;50156;37.772;-122.432;2022-09-17T09:01:56;100763.22;;;13.52;100.00
63970;BME280;50156;37.772;-122.432;2022-09-17T09:04:43;100764.43;;;13.48;100.00
63970;BME280;50156;37.772;-122.432;2022-09-17T09:07:24;100762.87;;;13.43;100.00
63970;BME280;50156;37.772;-122.432;2022-09-17T09:10:04;100763.63;;;13.46;100.00
63970;BME280;50156;37.772;-122.432;2022-09-17T09:12:39;100761.25;;;13.46;100.00
63970;BME280;50156;37.772;-122.432;2022-09-17T09:15:22;100761.09;;;13.45;100.00
63970;BME280;50156;37.772;-122.432;2022-09-17T09:17:53;100764.04;;;13.43;100.00
63970;BME280;50156;37.772;-122.432;2022-09-17T09:20:29;100766.53;;;13.45;100.00
63970;BME280;50156;37.772;-122.432;2022-09-17T09:23:06;100766.04;;;13.41;100.00
63970;BME280;50156;37.772;-122.432;2022-09-17T09:25:46;100769.02;;;13.45;100.00
63970;BME280;50156;37.772;-122.432;2022-09-17T09:28:37;100768.24;;;13.43;100.00
63970;BME280;50156;37.772;-122.432;2022-09-17T09:31:23;100766.30;;;13.41;100.00
63970;BME280;50156;37.772;-122.432;2022-09-17T09:33:55;100762.51;;;13.41;100.00
63970;BME280;50156;37.772;-122.432;2022-09-17T09:36:29;100763.91;;;13.41;100.00
63970;BME280;50156;37.772;-122.432;2022-09-17T09:39:00;100764.33;;;13.40;100.00
63970;BME280;50156;37.772;-122.432;2022-09-17T09:41:36;100756.21;;;13.39;100.00
63970;BME280;50156;37.772;-122.432;2022-09-17T09:44:10;100754.23;;;13.40;100.00
63970;BME280;50156;37.772;-122.432;2022-09-17T09:46:51;100754.63;;;13.33;100.00
63970;BME280;50156;37.772;-122.432;2022-09-17T09:49:35;100753.21;;;13.36;100.00
63970;BME280;50156;37.772;-122.432;2022-09-17T09:52:17;100758.42;;;13.33;100.00
63970;BME280;50156;37.772;-122.432;2022-09-17T09:55:01;100758.55;;;13.38;100.00
63970;BME280;50156;37.772;-122.432;2022-09-17T09:57:40;100754.82;;;13.38;100.00
63970;BME280;50156;37.772;-122.432;2022-09-17T10:00:24;100755.62;;;13.37;100.00
63970;BME280;50156;37.772;-122.432;2022-09-17T10:02:57;100747.91;;;13.35;100.00
63970;BME280;50156;37.772;-122.432;2022-09-17T10:05:28;100742.54;;;13.35;100.00
63970;BME280;50156;37.772;-122.432;2022-09-17T10:07:57;100745.36;;;13.32;100.00
63970;BME280;50156;37.772;-122.432;2022-09-17T10:10:26;100750.12;;;13.30;100.00
63970;BME280;50156;37.772;-122.432;2022-09-17T10:13:11;100754.93;;;13.28;100.00
63970;BME280;50156;37.772;-122.432;2022-09-17T10:15:40;100754.22;;;13.28;100.00
63970;BME280;50156;37.772;-122.432;2022-09-17T10:18:16;100750.45;;;13.29;100.00
63970;BME280;50156;37.772;-122.432;2022-09-17T10:20:55;100752.21;;;13.38;100.00
63970;BME280;50156;37.772;-122.432;2022-09-17T10:23:26;100744.61;;;13.40;100.00
63970;BME280;50156;37.772;-122.432;2022-09-17T10:25:55;100744.75;;;13.36;100.00
63970;BME280;50156;37.772;-122.432;2022-09-17T10:28:31;100744.06;;;13.34;100.00
63970;BME280;50156;37.772;-122.432;2022-09-17T10:31:03;100740.01;;;13.30;100.00
63970;BME280;50156;37.772;-122.432;2022-09-17T10:33:33;100735.76;;;13.31;100.00
63970;BME280;50156;37.772;-122.432;2022-09-17T10:36:03;100734.07;;;13.35;100.00
63970;BME280;50156;37.772;-122.432;2022-09-17T10:38:35;100732.09;;;13.38;100.00
63970;BME280;50156;37.772;-122.432;2022-09-17T10:41:11;100727.46;;;13.36;100.00
63970;BME280;50156;37.772;-122.432;2022-09-17T10:43:39;100725.79;;;13.34;100.00
63970;BME280;50156;37.772;-122.432;2022-09-17T10:46:11;100724.06;;;13.35;100.00
63970;BME280;50156;37.772;-122.432;2022-09-17T10:48:45;100720.28;;;13.36;100.00
63970;BME280;50156;37.772;-122.432;2022-09-17T10:51:24;100717.64;;;13.35;100.00
63970;BME280;50156;37.772;-122.432;2022-09-17T10:54:16;100710.65;;;13.38;100.00
63970;BME280;50156;37.772;-122.432;2022-09-17T10:56:56;100713.91;;;13.43;100.00
63970;BME280;50156;37.772;-122.432;2022-09-17T10:59:39;100708.90;;;13.39;100.00
63970;BME280;50156;37.772;-122.432;2022-09-17T11:02:35;100709.02;;;13.43;100.00
63970;BME280;50156;37.772;-122.432;2022-09-17T11:05:25;100707.74;;;13.37;100.00
63970;BME280;50156;37.772;-122.432;2022-09-17T11:08:02;100703.14;;;13.38;100.00
63970;BME280;50156;37.772;-122.432;2022-09-17T11:10:37;100699.64;;;13.39;100.00
63970;BME280;50156;37.772;-122.432;2022-09-17T11:13:21;100700.85;;;13.32;100.00
63970;BME280;50156;37.772;-122.432;2022-09-17T11:16:04;100693.94;;;13.32;100.00
63970;BME280;50156;37.772;-122.432;2022-09-17T11:18:40;100695.16;;;13.24;100.00
63970;BME280;50156;37.772;-122.432;2022-09-17T11:21:34;100691.16;;;13.23;100.00
63970;BME280;50156;37.772;-122.432;2022-09-17T11:24:23;100693.03;;;13.21;100.00
63970;BME280;50156;37.772;-122.432;2022-09-17T11:27:02;100692.74;;;13.17;100.00
63970;BME280;50156;37.772;-122.432;2022-09-17T11:29:43;100690.40;;;13.15;100.00
63970;BME280;50156;37.772;-122.432;2022-09-17T11:32:30;100690.70;;;13.18;100.00
63970;BME280;50156;37.772;-122.432;2022-09-17T11:35:05;100687.88;;;13.16;100.00
63970;BME280;50156;37.772;-122.432;2022-09-17T11:37:39;100686.39;;;13.11;100.00
63970;BME280;50156;37.772;-122.432;2022-09-17T11:40:14;100687.31;;;13.11;100.00
63970;BME280;50156;37.772;-122.432;2022-09-17T11:42:49;100685.22;;;13.13;100.00
63970;BME280;50156;37.772;-122.432;2022-09-17T11:45:23;100686.80;;;13.14;100.00
63970;BME280;50156;37.772;-122.432;2022-09-17T11:47:59;100686.16;;;13.18;100.00
63970;BME280;50156;37.772;-122.432;2022-09-17T11:50:34;100681.51;;;13.19;100.00
63970;BME280;50156;37.772;-122.432;2022-09-17T11:53:13;100684.02;;;13.24;100.00
63970;BME280;50156;37.772;-122.432;2022-09-17T11:55:46;100685.56;;;13.29;100.00
63970;BME280;50156;37.772;-122.432;2022-09-17T11:58:31;100686.01;;;13.37;100.00
63970;BME280;50156;37.772;-122.432;2022-09-17T12:01:05;100686.20;;;13.36;100.00
63970;BME280;50156;37.772;-122.432;2022-09-17T12:03:41;100686.68;;;13.40;100.00
63970;BME280;50156;37.772;-122.432;2022-09-17T12:06:15;100681.63;;;13.32;100.00
63970;BME280;50156;37.772;-122.432;2022-09-17T12:08:55;100684.19;;;13.26;100.00
63970;BME280;50156;37.772;-122.432;2022-09-17T12:11:33;100681.54;;;13.26;100.00
63970;BME280;50156;37.772;-122.432;2022-09-17T12:14:08;100680.90;;;13.31;100.00
63970;BME280;50156;37.772;-122.432;2022-09-17T12:16:44;100677.08;;;13.33;100.00
63970;BME280;50156;37.772;-122.432;2022-09-17T12:19:18;100678.68;;;13.37;100.00
63970;BME280;50156;37.772;-122.432;2022-09-17T12:21:52;100677.41;;;13.37;100.00
63970;BME280;50156;37.772;-122.432;2022-09-17T12:24:23;100677.32;;;13.35;100.00
63970;BME280;50156;37.772;-122.432;2022-09-17T12:27:04;100676.09;;;13.35;100.00
63970;BME280;50156;37.772;-122.432;2022-09-17T12:29:45;100671.95;;;13.30;100.00
63970;BME280;50156;37.772;-122.432;2022-09-17T12:32:33;100672.09;;;13.35;100.00
63970;BME280;50156;37.772;-122.432;2022-09-17T12:35:13;100670.89;;;13.24;100.00
63970;BME280;50156;37.772;-122.432;2022-09-17T12:38:00;100665.52;;;13.25;100.00
63970;BME280;50156;37.772;-122.432;2022-09-17T12:40:37;100664.46;;;13.33;100.00
63970;BME280;50156;37.772;-122.432;2022-09-17T12:43:30;100672.53;;;13.28;100.00